This is the latest recevied weather packets stored in our database for station/object WA6GRA. If no packets are shown the sender has not sent any weather packets the latest 10 day(s).
| Time | Temp. | Humidity | Pressure | Rain* | Wind** | Luminosity | Snow |
|---|---|---|---|---|---|---|---|
| 1777664593 | 25.56° C | 51% | 1012.7 hPa | 0 mm | - | 904 W/m² | - |
| 1777663989 | 25.56° C | 52% | 1012.9 hPa | 0 mm | - | 898 W/m² | - |
| 1777663388 | 26.11° C | 51% | 1013 hPa | 0 mm | - | 890 W/m² | - |
| 1777662782 | 25.56° C | 52% | 1013.2 hPa | 0 mm | - | 891 W/m² | - |
| 1777662181 | 26.11° C | 52% | 1013.4 hPa | 0 mm | - | 875 W/m² | - |
| 1777661578 | 25° C | 53% | 1013.4 hPa | 0 mm | - | 865 W/m² | - |
| 1777660976 | 25.56° C | 52% | 1013.7 hPa | 0 mm | - | 850 W/m² | - |
| 1777660375 | 24.44° C | 55% | 1013.7 hPa | 0 mm | - | 836 W/m² | - |
| 1777659774 | 25° C | 53% | 1013.7 hPa | 0 mm | - | 818 W/m² | - |
| 1777659174 | 24.44° C | 55% | 1013.8 hPa | 0 mm | - | 802 W/m² | - |
| 1777658573 | 23.89° C | 56% | 1013.8 hPa | 0 mm | - | 780 W/m² | - |
| 1777657973 | 23.33° C | 60% | 1013.8 hPa | 0 mm | - | 756 W/m² | - |
| 1777657372 | 23.89° C | 60% | 1013.9 hPa | 0 mm | - | 733 W/m² | - |
| 1777656773 | 22.78° C | 62% | 1014 hPa | 0 mm | - | 709 W/m² | - |
| 1777656170 | 22.78° C | 64% | 1014.3 hPa | 0 mm | - | 680 W/m² | - |
| 1777655569 | 22.22° C | 64% | 1014.2 hPa | 0 mm | - | 652 W/m² | - |
| 1777654969 | 21.67° C | 64% | 1014.3 hPa | 0 mm | - | 623 W/m² | - |
| 1777654363 | 21.67° C | 66% | 1014.1 hPa | 0 mm | - | 594 W/m² | - |
| 1777653763 | 21.11° C | 67% | 1014.4 hPa | 0 mm | - | 565 W/m² | - |
| 1777653163 | 20.56° C | 69% | 1014.3 hPa | 0 mm | - | 529 W/m² | - |
| 1777652561 | 20.56° C | 69% | 1014.3 hPa | 0 mm | - | 498 W/m² | - |
| 1777651961 | 20° C | 70% | 1014.1 hPa | 0 mm | - | 463 W/m² | - |
| 1777651360 | 19.44° C | 72% | 1014.6 hPa | 0 mm | - | 430 W/m² | - |
| 1777650760 | 18.89° C | 73% | 1014.4 hPa | 0 mm | - | 395 W/m² | - |
| 1777650160 | 18.33° C | 74% | 1014.2 hPa | 0 mm | - | 363 W/m² | - |
* Rain latest hour (hover to see other rain measurements)
** Current wind speed in m/s (hover to see current wind gust speed)